Time;durP1;ratioP1;P1;durP2;ratioP2;P2;SDS_P1;SDS_P2;PMS_P1;PMS_P2;Temp;Humidity;BMP_temperature;BMP_pressure;BME280_temperature;BME280_humidity;BME280_pressure;Samples;Min_cycle;Max_cycle;Signal;HPM_P1;HPM_P2
2023/09/18 00:02:13;;;;;;;15.60;7.80;;;;;;;17.34;49.52;101198.81;126530;1086;104213;-76
2023/09/18 00:04:41;;;;;;;13.47;6.70;;;;;;;17.25;50.09;101200.44;126670;1086;104194;-76
2023/09/18 00:07:10;;;;;;;14.07;6.73;;;;;;;17.24;50.22;101198.64;126723;1086;102091;-76
2023/09/18 00:09:39;;;;;;;11.50;6.23;;;;;;;17.24;50.25;101201.30;126667;1086;104213;-76
2023/09/18 00:12:09;;;;;;;14.53;6.27;;;;;;;17.18;50.12;101209.13;126615;1086;104150;-75
2023/09/18 00:14:38;;;;;;;16.13;6.70;;;;;;;17.10;50.46;101210.73;126579;1086;104159;-76
2023/09/18 00:17:07;;;;;;;14.47;6.67;;;;;;;17.06;50.12;101209.80;126706;1086;104213;-76
2023/09/18 00:19:35;;;;;;;15.57;6.70;;;;;;;17.06;50.37;101208.88;126728;1085;104321;-76
2023/09/18 00:22:04;;;;;;;14.77;7.00;;;;;;;17.03;50.45;101206.16;126604;1086;104254;-76
2023/09/18 00:24:33;;;;;;;15.50;6.80;;;;;;;17.01;50.31;101200.83;126609;1086;101816;-75
2023/09/18 00:27:02;;;;;;;15.10;6.70;;;;;;;16.98;50.81;101200.77;126592;1086;104204;-76
2023/09/18 00:29:31;;;;;;;14.43;6.83;;;;;;;16.99;50.74;101204.33;126559;1086;104277;-75
2023/09/18 00:31:59;;;;;;;15.97;7.20;;;;;;;16.96;51.07;101209.56;126640;1085;104202;-76
2023/09/18 00:34:29;;;;;;;16.47;6.63;;;;;;;16.96;50.81;101204.27;126736;1086;104197;-76
2023/09/18 00:36:58;;;;;;;16.87;6.50;;;;;;;16.97;51.28;101200.73;126672;1086;104290;-76
2023/09/18 00:39:27;;;;;;;12.70;6.53;;;;;;;16.96;51.17;101198.97;127717;1085;102060;-76
2023/09/18 00:41:56;;;;;;;15.57;7.13;;;;;;;16.88;50.81;101202.34;126657;1086;101968;-76
2023/09/18 00:44:26;;;;;;;14.50;6.70;;;;;;;16.88;51.41;101196.16;126634;1086;104229;-76
2023/09/18 00:46:55;;;;;;;16.07;6.90;;;;;;;16.83;51.06;101195.14;126627;1086;101845;-76
2023/09/18 00:49:25;;;;;;;12.70;6.40;;;;;;;16.79;51.27;101188.86;126629;1086;104156;-76
2023/09/18 00:51:54;;;;;;;13.00;6.57;;;;;;;16.75;51.18;101187.02;126622;1086;104037;-76
2023/09/18 00:54:23;;;;;;;16.73;6.43;;;;;;;16.76;51.84;101186.14;126557;1086;104165;-76
2023/09/18 00:56:54;;;;;;;14.07;6.77;;;;;;;16.77;51.94;101190.59;126561;1086;104258;-75
2023/09/18 00:59:23;;;;;;;16.30;6.97;;;;;;;16.76;51.97;101188.79;126632;1086;104229;-76
2023/09/18 01:01:52;;;;;;;15.73;6.80;;;;;;;16.72;52.45;101186.95;126778;1086;101861;-76
2023/09/18 01:04:22;;;;;;;15.10;6.80;;;;;;;16.68;52.11;101195.69;126635;1086;104155;-76
2023/09/18 01:06:50;;;;;;;12.13;6.47;;;;;;;16.66;52.32;101198.31;126740;1086;101769;-75
2023/09/18 01:09:19;;;;;;;14.93;7.37;;;;;;;16.65;52.39;101195.63;126633;1086;101918;-76
2023/09/18 01:11:55;;;;;;;15.33;6.90;;;;;;;16.63;52.19;101203.53;126781;1086;104152;-75
2023/09/18 01:14:34;;;;;;;15.30;7.10;;;;;;;16.58;52.31;101198.98;126702;1086;101884;-76
2023/09/18 01:17:05;;;;;;;13.13;7.17;;;;;;;16.58;52.08;101198.98;126664;1086;104146;-75
2023/09/18 01:19:39;;;;;;;17.73;7.40;;;;;;;16.55;52.17;101205.13;126661;1086;104159;-75
2023/09/18 01:22:09;;;;;;;16.65;7.60;;;;;;;16.53;52.42;101202.45;126631;1086;104225;-75
2023/09/18 01:24:38;;;;;;;17.30;7.90;;;;;;;16.47;52.67;101197.02;126652;1086;101851;-76
2023/09/18 01:27:09;;;;;;;16.57;7.77;;;;;;;16.44;53.16;101199.59;126590;1086;101962;-75
2023/09/18 01:29:40;;;;;;;16.15;7.62;;;;;;;16.42;52.58;101197.75;126669;1086;104271;-76
2023/09/18 01:32:09;;;;;;;14.73;7.37;;;;;;;16.40;52.69;101208.31;126597;1086;104168;-76
2023/09/18 01:34:41;;;;;;;16.07;7.43;;;;;;;16.38;52.68;101204.74;126650;1086;104663;-76
2023/09/18 01:37:12;;;;;;;18.10;7.20;;;;;;;16.29;52.89;101204.53;126710;1086;101786;-75
2023/09/18 01:39:42;;;;;;;15.87;7.10;;;;;;;16.26;53.13;101207.11;126690;1086;104246;-76
2023/09/18 01:42:10;;;;;;;14.40;6.77;;;;;;;16.25;52.62;101211.52;126693;1086;101977;-76
2023/09/18 01:44:39;;;;;;;15.73;7.10;;;;;;;16.24;52.70;101208.83;126587;1085;104155;-75
2023/09/18 01:47:09;;;;;;;18.97;7.73;;;;;;;16.23;52.76;101214.97;126551;1086;104327;-75
2023/09/18 01:49:39;;;;;;;15.77;6.53;;;;;;;16.22;53.21;101210.52;126647;1086;104290;-76
2023/09/18 01:52:10;;;;;;;15.43;7.50;;;;;;;16.18;53.31;101209.56;126606;1086;101904;-76
2023/09/18 01:54:39;;;;;;;16.50;7.03;;;;;;;16.15;53.01;101209.49;126587;1086;104220;-75
2023/09/18 01:57:07;;;;;;;16.53;7.17;;;;;;;16.12;53.00;101212.06;126593;1086;104163;-75
2023/09/18 01:59:36;;;;;;;14.47;6.93;;;;;;;16.09;53.29;101209.34;126599;1086;102060;-76
2023/09/18 02:02:08;;;;;;;15.93;7.80;;;;;;;16.05;53.12;101212.76;126602;1086;101829;-76
2023/09/18 02:04:37;;;;;;;16.17;7.07;;;;;;;16.04;53.79;101205.70;126610;1086;101909;-76
2023/09/18 02:07:07;;;;;;;15.07;6.87;;;;;;;16.02;54.17;101203.02;126543;1086;101823;-75
2023/09/18 02:09:37;;;;;;;15.47;7.23;;;;;;;16.02;53.93;101204.74;126601;1086;102370;-76
2023/09/18 02:12:07;;;;;;;15.87;7.20;;;;;;;16.00;54.20;101204.70;126522;1085;104261;-76
2023/09/18 02:14:35;;;;;;;16.77;7.10;;;;;;;16.00;54.10;101207.35;126597;1086;102301;-75
2023/09/18 02:17:05;;;;;;;13.43;6.80;;;;;;;15.96;54.35;101203.74;126618;1086;102601;-76
2023/09/18 02:19:34;;;;;;;15.43;7.60;;;;;;;15.90;54.51;101205.35;126530;1086;104024;-75
2023/09/18 02:22:03;;;;;;;16.30;7.23;;;;;;;15.89;54.41;101206.20;126679;1086;104213;-76
2023/09/18 02:24:32;;;;;;;19.20;8.03;;;;;;;15.90;54.12;101208.00;126609;1086;104228;-76
2023/09/18 02:27:01;;;;;;;18.95;7.90;;;;;;;15.88;53.91;101210.61;126582;1086;104162;-75
2023/09/18 02:29:29;;;;;;;15.97;7.63;;;;;;;15.87;54.91;101208.80;126587;1086;104268;-75
2023/09/18 02:31:58;;;;;;;15.60;7.50;;;;;;;15.82;54.94;101202.51;126478;1086;104335;-75
2023/09/18 02:34:27;;;;;;;16.70;7.73;;;;;;;15.77;54.39;101210.33;126639;1086;104162;-75
2023/09/18 02:36:58;;;;;;;19.13;7.53;;;;;;;15.71;54.62;101215.43;126533;1085;104155;-75
2023/09/18 02:39:27;;;;;;;17.00;8.00;;;;;;;15.68;55.03;101217.99;126602;1085;104296;-75
2023/09/18 02:41:56;;;;;;;18.13;7.80;;;;;;;15.66;54.74;101216.16;126591;1086;101886;-75
2023/09/18 02:44:25;;;;;;;15.00;7.27;;;;;;;15.63;54.54;101214.34;126501;1086;104251;-75
2023/09/18 02:46:53;;;;;;;19.65;8.15;;;;;;;15.63;54.59;101207.29;126479;1086;104235;-75
2023/09/18 02:49:22;;;;;;;15.17;7.13;;;;;;;15.60;55.23;101215.14;126543;1086;101806;-75
2023/09/18 02:51:50;;;;;;;16.50;7.77;;;;;;;15.57;55.52;101223.00;126628;1086;104181;-75
2023/09/18 02:54:19;;;;;;;15.53;8.03;;;;;;;15.53;54.54;101210.53;126967;1086;102109;-75
2023/09/18 02:56:48;;;;;;;14.87;7.80;;;;;;;15.52;54.92;101218.42;127044;1086;104136;-75
2023/09/18 02:59:17;;;;;;;17.50;7.37;;;;;;;15.51;55.53;101220.19;127622;1086;102047;-75
2023/09/18 03:01:45;;;;;;;19.17;7.73;;;;;;;15.51;55.23;101227.23;126818;1086;104213;-75
2023/09/18 03:04:16;;;;;;;22.40;8.13;;;;;;;15.50;55.81;101222.79;126720;1086;101980;-76
2023/09/18 03:06:44;;;;;;;19.97;7.93;;;;;;;15.49;55.86;101227.20;126680;1086;104216;-76
2023/09/18 03:09:13;;;;;;;21.37;7.77;;;;;;;15.48;55.62;101233.33;126613;1086;101944;-76
2023/09/18 03:11:43;;;;;;;18.20;8.27;;;;;;;15.45;55.39;101236.77;126686;1086;104366;-75
2023/09/18 03:14:12;;;;;;;21.60;8.20;;;;;;;15.43;55.48;101237.60;126637;1086;104255;-75
2023/09/18 03:16:40;;;;;;;21.97;9.20;;;;;;;15.42;55.80;101235.80;126684;1086;101909;-76
2023/09/18 03:19:09;;;;;;;19.83;7.90;;;;;;;15.41;55.86;101226.06;126557;1086;104194;-75
2023/09/18 03:21:38;;;;;;;19.47;7.67;;;;;;;15.40;55.07;101230.47;126547;1086;104297;-75
2023/09/18 03:24:09;;;;;;;16.20;7.60;;;;;;;15.39;55.96;101233.95;126603;1086;104273;-75
2023/09/18 03:26:41;;;;;;;17.10;7.77;;;;;;;15.36;56.00;101231.23;126567;1086;104213;-75
2023/09/18 03:29:10;;;;;;;15.43;7.20;;;;;;;15.34;55.77;101235.59;126473;1087;104142;-76
2023/09/18 03:31:39;;;;;;;16.27;7.60;;;;;;;15.35;54.99;101234.75;126596;1086;101857;-75
2023/09/18 03:34:08;;;;;;;18.27;7.53;;;;;;;15.26;55.42;101238.02;126457;1086;104268;-75
2023/09/18 03:36:37;;;;;;;15.70;7.13;;;;;;;15.21;56.07;101236.12;126612;1086;104175;-75
2023/09/18 03:39:06;;;;;;;16.95;7.80;;;;;;;15.14;56.15;101239.42;126548;1086;102173;-75
2023/09/18 03:41:34;;;;;;;18.83;8.13;;;;;;;15.09;56.11;101240.17;126503;1087;102011;-75
2023/09/18 03:44:03;;;;;;;17.03;7.87;;;;;;;14.97;56.59;101237.17;126204;1086;104146;-75
2023/09/18 03:46:32;;;;;;;19.03;8.07;;;;;;;14.87;56.69;101236.02;126512;1086;104232;-75
2023/09/18 03:49:00;;;;;;;27.00;9.00;;;;;;;14.82;55.96;101237.63;126477;1086;104225;-75
2023/09/18 03:51:29;;;;;;;23.55;8.10;;;;;;;14.83;56.97;101243.80;126519;1086;104209;-75
2023/09/18 03:53:59;;;;;;;22.53;9.30;;;;;;;14.84;56.30;101241.20;126517;1086;101961;-75
2023/09/18 03:56:27;;;;;;;24.83;9.03;;;;;;;14.88;56.75;101247.47;126581;1086;101862;-76
2023/09/18 03:59:00;;;;;;;25.47;9.50;;;;;;;14.89;56.26;101247.51;126530;1086;105499;-75
2023/09/18 04:01:29;;;;;;;26.13;8.53;;;;;;;14.89;57.08;101250.16;126540;1086;101945;-75
2023/09/18 04:03:58;;;;;;;30.40;9.17;;;;;;;14.94;56.53;101245.00;126592;1086;104302;-75
2023/09/18 04:06:36;;;;;;;19.07;8.37;;;;;;;14.97;56.43;101255.67;126526;1086;104149;-76
2023/09/18 04:09:04;;;;;;;18.97;7.87;;;;;;;15.02;56.60;101255.80;127231;1085;101926;-75
2023/09/18 04:11:33;;;;;;;24.27;8.73;;;;;;;14.99;56.83;101264.56;126508;1086;104353;-75
2023/09/18 04:14:03;;;;;;;22.23;8.67;;;;;;;15.03;57.69;101268.18;126875;1086;102364;-75
2023/09/18 04:16:35;;;;;;;23.67;8.57;;;;;;;15.08;56.78;101267.48;127845;1086;104159;-75
2023/09/18 04:19:03;;;;;;;22.17;8.73;;;;;;;15.10;57.31;101265.77;126941;1086;104300;-75
2023/09/18 04:21:32;;;;;;;17.67;7.47;;;;;;;15.14;56.90;101261.45;126783;1086;101960;-75
2023/09/18 04:24:01;;;;;;;16.17;7.83;;;;;;;15.18;57.14;101263.34;126834;1086;104204;-76
2023/09/18 04:26:30;;;;;;;24.10;8.53;;;;;;;15.21;57.92;101262.55;126877;1086;102173;-75
2023/09/18 04:29:00;;;;;;;20.93;8.63;;;;;;;15.22;57.45;101267.88;126831;1086;104255;-75
2023/09/18 04:31:29;;;;;;;24.97;8.80;;;;;;;15.26;58.42;101271.50;126705;1086;104258;-76
2023/09/18 04:33:58;;;;;;;18.50;8.70;;;;;;;15.31;57.70;101271.63;127082;1086;101894;-76
2023/09/18 04:36:30;;;;;;;18.57;7.90;;;;;;;15.30;57.93;101272.48;126984;1086;104222;-76
2023/09/18 04:38:59;;;;;;;19.40;9.33;;;;;;;15.26;58.23;101277.67;127204;1086;102273;-77
2023/09/18 04:41:28;;;;;;;18.47;7.97;;;;;;;15.21;58.63;101274.02;127121;1086;101954;-78
2023/09/18 04:43:57;;;;;;;16.37;8.33;;;;;;;15.22;57.81;101270.53;127009;1086;104287;-78
2023/09/18 04:46:34;;;;;;;17.80;8.77;;;;;;;15.26;58.55;101266.22;127544;1086;104194;-76
2023/09/18 04:49:03;;;;;;;19.07;8.40;;;;;;;15.28;58.41;101265.38;127256;1086;104270;-76
2023/09/18 04:51:33;;;;;;;25.87;9.47;;;;;;;15.34;58.04;101264.67;126624;1086;101832;-76
2023/09/18 04:54:01;;;;;;;21.43;8.63;;;;;;;15.38;59.00;101266.56;126787;1086;101918;-76
2023/09/18 04:56:32;;;;;;;20.93;8.50;;;;;;;15.37;58.29;101263.87;126775;1086;102271;-77
2023/09/18 04:59:00;;;;;;;25.70;8.50;;;;;;;15.37;59.15;101266.52;126655;1086;104245;-77
2023/09/18 05:01:32;;;;;;;30.17;9.57;;;;;;;15.38;58.62;101263.92;126775;1086;104156;-77
2023/09/18 05:04:04;;;;;;;21.13;8.90;;;;;;;15.42;59.39;101257.84;126394;1086;104255;-77
2023/09/18 05:06:33;;;;;;;19.97;8.93;;;;;;;15.44;58.95;101255.24;126761;1086;102007;-79
2023/09/18 05:09:02;;;;;;;21.13;8.77;;;;;;;15.47;58.90;101257.97;126620;1086;101836;-76
2023/09/18 05:11:31;;;;;;;24.13;9.20;;;;;;;15.53;59.81;101259.91;126587;1086;104153;-77
2023/09/18 05:14:02;;;;;;;22.23;9.53;;;;;;;15.61;59.34;101266.29;126492;1086;101954;-77
2023/09/18 05:16:31;;;;;;;19.97;9.23;;;;;;;15.67;59.81;101265.58;127711;1085;104162;-77
2023/09/18 05:19:02;;;;;;;25.13;10.07;;;;;;;15.67;59.21;101263.81;127734;1085;104169;-78
2023/09/18 05:21:39;;;;;;;23.60;10.38;;;;;;;15.66;59.51;101262.05;126709;1086;101934;-77
2023/09/18 05:24:11;;;;;;;25.70;10.27;;;;;;;15.68;60.19;101265.61;126727;1085;104232;-79
2023/09/18 05:27:12;;;;;;;26.13;10.63;;;;;;;15.67;60.23;101258.52;127430;1086;104187;-80
2023/09/18 05:30:05;;;;;;;24.97;10.80;;;;;;;15.66;59.74;101261.13;127429;1085;104171;-76
2023/09/18 05:33:22;;;;;;;29.47;11.00;;;;;;;15.67;60.38;101262.93;128361;1086;101932;-79
2023/09/18 05:36:18;;;;;;;29.30;10.83;;;;;;;15.69;60.37;101261.20;127930;1086;101781;-80
2023/09/18 05:39:29;;;;;;;34.20;10.47;;;;;;;15.69;60.68;101254.19;127969;1085;101939;-80
2023/09/18 05:42:10;;;;;;;28.67;11.40;;;;;;;15.70;60.75;101250.66;127831;1086;107325;-81
2023/09/18 05:45:05;;;;;;;32.60;11.40;;;;;;;15.71;60.66;101265.70;127524;1085;104038;-79
2023/09/18 05:47:40;;;;;;;24.57;11.23;;;;;;;15.74;60.99;101252.55;126772;1086;104793;-78
2023/09/18 05:50:22;;;;;;;29.37;11.20;;;;;;;15.80;60.99;101254.52;128763;1084;101676;-78
2023/09/18 05:52:59;;;;;;;27.77;11.27;;;;;;;15.86;61.39;101253.75;127311;1086;102449;-78
2023/09/18 05:55:35;;;;;;;29.33;12.03;;;;;;;15.91;60.91;101252.11;127369;1086;101856;-81
2023/09/18 05:58:14;;;;;;;24.63;10.73;;;;;;;16.00;61.39;101255.00;128253;1085;104642;-80
2023/09/18 06:00:49;;;;;;;27.82;11.85;;;;;;;16.10;61.19;101254.39;127991;1085;101991;-78
2023/09/18 06:03:20;;;;;;;27.47;11.57;;;;;;;16.22;60.91;101255.54;128364;1086;101631;-80
2023/09/18 06:05:59;;;;;;;28.30;11.40;;;;;;;16.34;60.38;101250.55;127505;1086;102196;-79
2023/09/18 06:08:35;;;;;;;25.83;11.30;;;;;;;16.45;60.39;101254.33;128255;1086;101749;-77
2023/09/18 06:11:24;;;;;;;23.20;11.13;;;;;;;16.58;61.00;101257.27;127958;1085;102002;-76
2023/09/18 06:13:58;;;;;;;23.43;10.60;;;;;;;16.68;60.39;101262.82;126526;1086;104267;-75
2023/09/18 06:16:42;;;;;;;;;;;;;;;;;;;;;
2023/09/18 06:20:12;;;;;;;25.07;9.80;;;;;;;16.94;60.58;101262.55;126540;1089;102156;-76
2023/09/18 06:23:01;;;;;;;28.63;10.90;;;;;;;17.09;60.18;101255.78;126963;1089;103039;-74
2023/09/18 06:25:55;;;;;;;;;;;;;;;;;;;;;
2023/09/18 06:28:38;;;;;;;25.90;10.60;;;;;;;17.33;60.30;101253.64;126351;1089;101967;-74
2023/09/18 06:31:14;;;;;;;22.07;10.67;;;;;;;17.46;59.44;101254.77;126287;1089;104155;-76
2023/09/18 06:33:50;;;;;;;25.17;9.63;;;;;;;17.58;59.47;101255.00;128937;1085;103861;-75
2023/09/18 06:36:31;;;;;;;27.70;10.50;;;;;;;17.72;59.07;101257.92;126531;1086;104060;-74
2023/09/18 06:39:04;;;;;;;26.27;10.27;;;;;;;17.84;59.02;101259.91;126592;1086;104152;-79
2023/09/18 06:42:04;;;;;;;29.20;11.43;;;;;;;17.99;58.99;101258.42;126475;1086;104187;-76
2023/09/18 06:44:43;;;;;;;27.27;11.40;;;;;;;18.11;58.89;101259.52;126383;1086;104228;-78
2023/09/18 06:47:24;;;;;;;26.57;11.43;;;;;;;18.22;58.97;101257.05;126720;1085;104158;-77
2023/09/18 06:50:15;;;;;;;22.50;10.53;;;;;;;18.36;58.17;101265.23;127868;1085;104329;-79
2023/09/18 06:53:04;;;;;;;18.73;8.37;;;;;;;18.52;57.64;101263.70;127593;1086;104143;-79
2023/09/18 06:56:12;;;;;;;18.37;8.27;;;;;;;18.68;56.89;101260.42;127815;1086;104229;-74
2023/09/18 06:59:19;;;;;;;19.87;8.13;;;;;;;18.89;56.87;101266.05;128444;1085;101657;-77
2023/09/18 07:02:06;;;;;;;20.97;8.23;;;;;;;19.10;56.89;101265.42;126189;1090;102672;-77
2023/09/18 07:14:39;;;;;;;19.63;8.50;;;;;;;19.87;55.44;101253.90;128739;1085;101837;-77
2023/09/18 07:17:18;;;;;;;22.53;7.90;;;;;;;20.09;55.06;101260.30;127949;1085;104161;-76
2023/09/18 07:19:48;;;;;;;23.10;8.47;;;;;;;20.27;54.19;101256.91;127691;1085;104152;-79
2023/09/18 07:22:20;;;;;;;20.27;7.50;;;;;;;20.45;53.38;101255.26;128536;1085;104258;-84
2023/09/18 07:28:22;;;;;;;17.77;6.93;;;;;;;20.82;52.24;101256.41;127899;1086;104241;-83
2023/09/18 07:34:00;;;;;;;17.57;6.77;;;;;;;21.21;51.89;101255.68;127723;1086;104235;-78
2023/09/18 07:36:55;;;;;;;14.27;6.50;;;;;;;21.37;50.73;101252.20;128258;1086;102077;-81
2023/09/18 07:39:42;;;;;;;15.40;7.03;;;;;;;21.49;49.78;101244.25;128894;1085;101732;-79
2023/09/18 07:42:50;;;;;;;15.33;6.17;;;;;;;21.66;49.62;101240.71;127309;1085;101771;-77
2023/09/18 07:45:46;;;;;;;13.60;6.55;;;;;;;21.78;49.52;101238.06;127265;1086;102522;-76
2023/09/18 07:48:27;;;;;;;13.13;6.27;;;;;;;21.97;48.72;101243.42;126534;1086;104232;-76
2023/09/18 07:51:34;;;;;;;14.23;6.27;;;;;;;22.10;47.93;101239.00;126581;1086;104257;-77
2023/09/18 07:54:32;;;;;;;18.20;6.83;;;;;;;22.12;47.79;101238.08;127645;1086;102160;-77
2023/09/18 07:57:04;;;;;;;14.53;6.53;;;;;;;22.19;48.21;101242.55;127842;1085;104232;-77
2023/09/18 07:59:49;;;;;;;16.23;6.70;;;;;;;22.29;47.00;101237.20;127876;1086;102039;-78
2023/09/18 08:02:25;;;;;;;14.18;6.58;;;;;;;22.37;47.18;101236.31;129249;1085;101471;-81
2023/09/18 08:04:58;;;;;;;18.53;6.73;;;;;;;22.45;46.12;101236.30;127413;1086;104217;-79
2023/09/18 08:07:56;;;;;;;20.30;6.73;;;;;;;22.61;46.22;101240.73;128885;1085;104178;-82
2023/09/18 08:10:27;;;;;;;14.77;7.03;;;;;;;22.73;46.22;101228.22;127906;1086;101834;-82
2023/09/18 08:13:27;;;;;;;;;;;;;;;;;;;;;
2023/09/18 08:16:27;;;;;;;;;;;;;;;;;;;;;
2023/09/18 08:19:04;;;;;;;15.43;7.00;;;;;;;23.11;45.08;101225.44;127778;1089;103374;-83
2023/09/18 08:22:20;;;;;;;;;;;;;;;;;;;;;
2023/09/18 08:25:14;;;;;;;18.63;7.00;;;;;;;23.33;43.47;101218.17;128448;1085;104184;-80
2023/09/18 08:28:06;;;;;;;13.00;6.77;;;;;;;23.43;43.27;101216.32;129296;1085;101809;-80
2023/09/18 08:31:03;;;;;;;15.20;6.37;;;;;;;23.57;43.29;101207.33;128953;1085;104302;-78
2023/09/18 08:33:43;;;;;;;14.57;6.93;;;;;;;23.66;43.04;101208.14;129143;1085;101679;-81
2023/09/18 08:36:43;;;;;;;14.03;6.03;;;;;;;23.76;43.02;101208.08;128313;1086;104264;-80
2023/09/18 08:40:09;;;;;;;23.20;6.53;;;;;;;23.83;42.67;101204.45;128865;1085;101843;-85
2023/09/18 08:42:45;;;;;;;15.93;6.70;;;;;;;24.00;42.64;101202.55;127739;1086;104235;-81
2023/09/18 08:45:24;;;;;;;14.50;5.83;;;;;;;24.15;41.57;101204.22;127352;1086;101970;-79
2023/09/18 08:47:59;;;;;;;12.00;6.07;;;;;;;24.19;41.87;101197.02;127481;1086;104108;-81
2023/09/18 08:50:44;;;;;;;15.67;5.57;;;;;;;24.25;41.38;101194.28;127510;1086;101794;-83
2023/09/18 08:53:42;;;;;;;;;;;;;;;;;;;;;
2023/09/18 08:56:41;;;;;;;14.27;6.60;;;;;;;24.47;40.81;101194.94;127565;1086;104274;-87
2023/09/18 08:59:35;;;;;;;13.33;5.90;;;;;;;24.61;40.34;101197.50;128267;1085;102324;-80
2023/09/18 09:02:06;;;;;;;11.27;5.87;;;;;;;24.76;40.26;101196.42;127089;1088;104309;-78
2023/09/18 09:04:35;;;;;;;13.80;6.07;;;;;;;24.85;39.65;101192.75;126406;1089;104181;-79
2023/09/18 09:07:07;;;;;;;12.93;5.97;;;;;;;24.87;39.54;101189.14;127254;1089;101788;-76
2023/09/18 09:09:41;;;;;;;15.43;6.30;;;;;;;24.92;39.20;101189.09;126450;1089;103876;-83
2023/09/18 09:12:40;;;;;;;9.70;6.00;;;;;;;24.98;39.35;101183.64;127544;1086;104450;-79
2023/09/18 09:15:28;;;;;;;17.00;6.20;;;;;;;25.08;39.24;101187.96;126542;1086;104261;-79
2023/09/18 09:21:26;;;;;;;13.47;6.23;;;;;;;25.29;38.54;101180.53;127892;1086;101657;-85
2023/09/18 09:24:00;;;;;;;10.97;5.80;;;;;;;25.34;38.58;101172.41;127676;1086;102345;-85
2023/09/18 09:26:41;;;;;;;10.97;6.07;;;;;;;25.47;37.98;101176.70;127966;1085;104325;-81
2023/09/18 09:29:43;;;;;;;11.67;6.03;;;;;;;25.50;37.88;101170.41;128233;1086;101871;-80
2023/09/18 09:32:20;;;;;;;13.90;6.00;;;;;;;25.56;37.46;101181.06;129164;1085;101449;-78
2023/09/18 09:34:59;;;;;;;12.53;6.13;;;;;;;25.65;37.00;101176.41;128350;1086;101467;-85
2023/09/18 09:37:35;;;;;;;17.63;6.00;;;;;;;25.70;37.28;101176.34;127647;1086;104168;-84
2023/09/18 09:40:20;;;;;;;12.93;5.80;;;;;;;25.73;36.77;101173.60;128386;1086;102073;-80
2023/09/18 09:45:59;;;;;;;11.97;5.93;;;;;;;25.77;37.12;101164.59;127760;1086;101837;-86
2023/09/18 09:48:32;;;;;;;13.27;6.20;;;;;;;25.73;35.52;101159.28;128351;1085;101763;-83
2023/09/18 09:51:15;;;;;;;;;;;;;;;;;;;;;
2023/09/18 09:54:50;;;;;;;13.07;5.90;;;;;;;25.78;36.29;101152.91;128950;1085;101653;-81
2023/09/18 09:57:23;;;;;;;13.57;6.23;;;;;;;25.83;35.90;101151.02;128784;1085;101717;-81
2023/09/18 10:00:27;;;;;;;12.27;6.17;;;;;;;25.88;36.01;101161.69;127864;1086;101711;-86
2023/09/18 10:03:26;;;;;;;;;;;;;;;;;;;;;
2023/09/18 10:06:12;;;;;;;11.47;5.63;;;;;;;25.99;35.29;101150.78;128431;1085;102297;-84
2023/09/18 10:08:43;;;;;;;13.47;5.90;;;;;;;25.99;35.59;101151.69;128445;1085;108230;-88
2023/09/18 10:11:32;;;;;;;12.83;5.63;;;;;;;26.06;35.51;101160.52;129086;1085;104670;-86
2023/09/18 10:14:18;;;;;;;10.90;5.67;;;;;;;26.11;34.04;101147.87;128196;1085;101857;-87
2023/09/18 10:17:18;;;;;;;;;;;;;;;;;;;;;
2023/09/18 10:20:26;;;;;;;13.10;6.33;;;;;;;26.17;34.43;101130.73;128022;1086;102109;-84
2023/09/18 10:23:23;;;;;;;10.27;5.53;;;;;;;26.26;34.04;101135.06;127967;1086;101867;-88
2023/09/18 10:26:00;;;;;;;10.97;5.57;;;;;;;26.36;34.36;101128.57;127975;1086;104210;-83
2023/09/18 10:29:34;;;;;;;;;;;;;;;;;;;;;
2023/09/18 10:32:20;;;;;;;9.90;5.70;;;;;;;26.38;33.53;101115.97;127428;1086;102354;-77
2023/09/18 10:35:17;;;;;;;12.63;5.77;;;;;;;26.31;33.40;101114.34;128379;1085;101824;-82
2023/09/18 10:37:59;;;;;;;12.20;5.60;;;;;;;26.36;33.08;101104.36;127401;1086;104178;-79
2023/09/18 10:40:35;;;;;;;10.00;5.97;;;;;;;26.42;33.03;101106.92;128221;1085;101920;-79
2023/09/18 10:43:05;;;;;;;;;;;;;;;26.46;32.93;101116.72;128344;1085;104255;-86
2023/09/18 10:45:38;;;;;;;12.37;5.90;;;;;;;26.48;32.40;101114.87;128858;1085;101443;-83
2023/09/18 10:48:34;;;;;;;15.87;5.50;;;;;;;26.53;33.27;101115.65;129200;1085;102004;-81
2023/09/18 10:51:25;;;;;;;;;;;;;;;;;;;;;
2023/09/18 10:54:01;;;;;;;9.97;5.63;;;;;;;26.50;33.13;101104.95;128850;1085;101587;-86
2023/09/18 10:56:44;;;;;;;10.80;5.50;;;;;;;26.48;32.72;101098.73;127489;1086;101855;-79
2023/09/18 10:59:27;;;;;;;11.60;5.83;;;;;;;26.50;32.59;101090.63;128261;1085;104149;-83
2023/09/18 11:02:09;;;;;;;11.00;5.70;;;;;;;26.44;31.69;101086.24;128365;1085;101849;-84
2023/09/18 11:05:04;;;;;;;14.77;5.90;;;;;;;26.45;31.85;101093.41;127786;1086;101876;-82
2023/09/18 11:07:44;;;;;;;13.93;5.77;;;;;;;26.51;32.24;101095.97;128104;1085;102043;-77
2023/09/18 11:10:33;;;;;;;11.43;5.40;;;;;;;26.51;31.98;101077.13;127549;1086;104268;-81
2023/09/18 11:13:45;;;;;;;11.37;5.67;;;;;;;26.56;31.73;101077.03;127809;1086;101643;-76
2023/09/18 11:16:46;;;;;;;11.73;5.63;;;;;;;26.57;32.21;101069.84;128274;1085;101864;-83
2023/09/18 11:19:27;;;;;;;13.20;5.87;;;;;;;26.62;31.33;101067.95;128162;1085;101816;-81
2023/09/18 11:22:10;;;;;;;11.17;5.60;;;;;;;26.67;31.44;101060.69;127419;1086;104191;-79
2023/09/18 11:24:49;;;;;;;10.50;5.30;;;;;;;26.71;31.42;101057.02;127451;1086;102007;-82
2023/09/18 11:27:48;;;;;;;10.27;5.63;;;;;;;26.72;31.17;101050.70;128206;1086;101837;-82
2023/09/18 11:30:43;;;;;;;17.00;6.13;;;;;;;26.74;31.37;101054.26;128497;1085;104120;-81
2023/09/18 11:34:10;;;;;;;12.98;6.15;;;;;;;26.80;31.31;101050.52;128435;1085;101767;-82
2023/09/18 11:37:11;;;;;;;11.37;5.70;;;;;;;26.76;31.39;101048.84;126926;1089;101932;-78
2023/09/18 11:40:13;;;;;;;9.60;5.90;;;;;;;26.72;31.07;101048.00;128411;1085;101616;-82
2023/09/18 11:43:39;;;;;;;10.73;5.70;;;;;;;26.66;30.73;101048.14;126712;1086;104309;-78
2023/09/18 11:46:41;;;;;;;13.90;5.70;;;;;;;26.60;30.89;101042.86;126931;1086;104206;-79
2023/09/18 11:49:22;;;;;;;10.93;6.10;;;;;;;26.62;30.53;101051.81;126809;1086;102254;-80
2023/09/18 11:52:11;;;;;;;11.67;5.83;;;;;;;26.64;30.99;101052.65;128282;1085;102056;-81
2023/09/18 11:54:48;;;;;;;11.77;5.30;;;;;;;26.68;30.44;101041.81;128146;1085;104158;-86
2023/09/18 11:57:48;;;;;;;11.87;5.47;;;;;;;26.71;30.69;101044.44;127494;1086;101880;-78
2023/09/18 12:00:31;;;;;;;10.07;5.43;;;;;;;26.72;30.17;101050.70;127171;1089;102024;-78
2023/09/18 12:03:31;;;;;;;10.80;5.73;;;;;;;26.70;30.96;101033.70;127887;1085;104188;-79
2023/09/18 12:06:10;;;;;;;8.70;5.50;;;;;;;26.66;30.75;101038.28;126916;1086;104206;-83
2023/09/18 12:08:48;;;;;;;12.07;5.20;;;;;;;26.66;30.29;101031.99;128252;1086;102030;-80
2023/09/18 12:11:46;;;;;;;13.07;6.13;;;;;;;26.66;30.33;101031.99;128285;1085;101841;-85
2023/09/18 12:14:22;;;;;;;11.13;6.13;;;;;;;26.61;30.37;101028.49;128051;1086;102334;-82
2023/09/18 12:17:11;;;;;;;;;;;;;;;;;;;;;
2023/09/18 12:20:23;;;;;;;9.93;5.63;;;;;;;26.53;30.38;101018.78;128059;1086;101774;-81
2023/09/18 12:23:07;;;;;;;10.27;5.67;;;;;;;26.47;30.34;101021.60;128119;1085;101819;-86
2023/09/18 12:26:07;;;;;;;10.25;5.35;;;;;;;26.41;29.92;101024.42;128735;1085;102245;-83
2023/09/18 12:32:17;;;;;;;9.30;5.10;;;;;;;26.34;30.07;101017.42;127427;1086;102127;-81
2023/09/18 12:38:01;;;;;;;9.60;5.50;;;;;;;26.31;29.45;101012.98;128607;1086;101565;-84
2023/09/18 12:40:53;;;;;;;13.20;5.37;;;;;;;26.29;29.58;101012.14;127588;1086;104153;-80
2023/09/18 12:43:56;;;;;;;9.17;5.13;;;;;;;26.27;29.59;101003.23;127824;1086;102676;-82